»·PEaware :: N888DH KSDL-KLAS

N888DH :: KSDL-KLAS

FLIGHT INFORMATION

Flight Status: Arrived
Operator: Privately registered:
United States
More flights under this callsign
Pilot: Tanner C. (11250)
Aircraft: BOMBARDIER BD-100 CHALLENGER 300
(CL30)
More flights by this aircraft type
Origin: KSDL Scottsdale
United States
Destination: KLAS McCarran Intl
United States
More flights between these airports :: More routes between these airports
Route: +MAYSA5 SISIE IGM TYSSN4
File this flight plan on PilotEdge
Remarks:
Altitude:
(Current/Filed)
28,000ft
Speed:
(Current/Filed)
400kts
Departed: 09-Jan-18 04:00 PM
Arrived: 09-Jan-18 04:43 PM
Distance/Time
Traveled:
218nm/0:42
Distance/Time
To Go:
Arrived

Flight Plot

Page will automatically refresh every two minutes.

Flight plan parsing failed; only flown route is shown


Map Options




Map Legend


Flown Route
Filed Route
Departure Airport
Arrival Airport
Navaid (VOR, NDB)
Fix

Horizontal Profiles

Position Reports

Time Latitude Longitude Heading Altitude Ground
Speed
09-Jan-18 15:55 33.622613 -111.908993 322 1479ft 0kts
09-Jan-18 15:56 33.622613 -111.908993 322 1479ft 0kts
09-Jan-18 15:57 33.622613 -111.908993 322 1479ft 0kts
09-Jan-18 15:58 33.622613 -111.908993 322 1479ft 0kts
09-Jan-18 15:59 33.622613 -111.908993 322 1479ft 0kts
09-Jan-18 16:00 33.622666 -111.909167 286 1479ft 5kts
09-Jan-18 16:01 33.624004 -111.908100 43 1482ft 8kts
09-Jan-18 16:02 33.627078 -111.904554 44 1494ft 14kts
09-Jan-18 16:03 33.629675 -111.901581 42 1502ft 10kts
09-Jan-18 16:04 33.630611 -111.900546 26 1504ft 0kts
09-Jan-18 16:05 33.630907 -111.901286 235 1504ft 11kts
09-Jan-18 16:06 33.609203 -111.930406 245 3854ft 210kts
09-Jan-18 16:07 33.633761 -111.983309 333 6975ft 307kts
09-Jan-18 16:08 33.700944 -112.001623 345 6985ft 262kts
09-Jan-18 16:09 33.754639 -112.025487 319 9641ft 242kts
09-Jan-18 16:10 33.806483 -112.081637 309 13535ft 319kts
09-Jan-18 16:11 33.869520 -112.153470 309 16673ft 369kts
09-Jan-18 16:12 33.943619 -112.238138 309 20549ft 405kts
09-Jan-18 16:13 34.026522 -112.332705 311 24159ft 433kts
09-Jan-18 16:14 34.116791 -112.423845 312 27182ft 452kts
09-Jan-18 16:15 34.210124 -112.517937 312 27799ft 463kts
09-Jan-18 16:16 34.301113 -112.609870 313 27872ft 419kts
09-Jan-18 16:17 34.387612 -112.697479 313 27890ft 420kts
09-Jan-18 16:18 34.475275 -112.786520 313 27889ft 420kts
09-Jan-18 16:19 34.563892 -112.876968 312 27886ft 418kts
09-Jan-18 16:20 34.649564 -112.970070 311 27886ft 418kts
09-Jan-18 16:21 34.736843 -113.065287 308 27886ft 451kts
09-Jan-18 16:22 34.826693 -113.164065 311 27881ft 417kts
09-Jan-18 16:23 34.912011 -113.257866 311 27827ft 419kts
09-Jan-18 16:24 34.990637 -113.358143 297 27808ft 407kts
09-Jan-18 16:25 35.047869 -113.475385 295 27798ft 407kts
09-Jan-18 16:26 35.102903 -113.592617 295 27796ft 406kts
09-Jan-18 16:27 35.145906 -113.685270 294 27809ft 406kts
09-Jan-18 16:28 35.186255 -113.772413 293 27354ft 414kts
09-Jan-18 16:29 35.232288 -113.872968 296 26422ft 407kts
09-Jan-18 16:30 35.295659 -113.962692 320 25345ft 395kts
09-Jan-18 16:31 35.375265 -114.039589 321 24231ft 390kts
09-Jan-18 16:32 35.452495 -114.112333 322 23806ft 384kts
09-Jan-18 16:33 35.531132 -114.185797 322 23803ft 387kts
09-Jan-18 16:34 35.608746 -114.258313 322 23802ft 386kts
09-Jan-18 16:35 35.685988 -114.330615 322 23801ft 386kts
09-Jan-18 16:36 35.772246 -114.394638 339 22646ft 372kts
09-Jan-18 16:37 35.865446 -114.424863 341 19079ft 337kts
09-Jan-18 16:38 35.952892 -114.452690 341 15174ft 322kts
09-Jan-18 16:39 36.031375 -114.488303 304 11811ft 276kts
09-Jan-18 16:40 36.047215 -114.575921 281 11437ft 303kts
09-Jan-18 16:41 36.062220 -114.667469 282 9920ft 266kts
09-Jan-18 16:42 36.073052 -114.742539 271 8426ft 237kts
09-Jan-18 16:43 36.073309 -114.813369 271 7188ft 227kts
09-Jan-18 16:44 36.073463 -114.881918 269 6539ft 191kts
09-Jan-18 16:45 36.073577 -114.946900 268 5103ft 216kts
09-Jan-18 16:46 36.073638 -115.012558 267 3954ft 183kts
09-Jan-18 16:47 36.073660 -115.068977 267 3046ft 151kts
09-Jan-18 16:48 36.073634 -115.115973 268 2326ft 131kts
09-Jan-18 16:49 36.074232 -115.144797 294 2118ft 28kts
09-Jan-18 16:50 36.077802 -115.147527 274 2118ft 15kts
09-Jan-18 16:51 36.078021 -115.153140 268 2118ft 19kts
09-Jan-18 16:52 36.078021 -115.160851 269 2118ft 20kts
09-Jan-18 16:53 36.078011 -115.168155 270 2118ft 18kts
09-Jan-18 16:54 36.080684 -115.169615 26 2118ft 16kts

Navigation Log

Ident Type
Flight plan parsing failed, navigation log unavailable